Racecast

Chet Bhatti

Sacramento (CA) · Senior · DELTACA D1SJS D1 · Compare head to head

Athlete ratingi 114.1 2015 TF season
Best race 116.7 TF
Races 67
Seasons 5 2012 — 2016

RankedNation #30862·CA #4297·CA D1 #2117·SJS #451·SJS D1 #326·DELTA #39·Team #17 ?

Speed rating — all races

Cross Country

XC speed rating

2016 XC 90.7

Sacramento (CA) · Grade Senior

Date Meet Event Result Place Ratingi Difficultyi PR/SR Flags
2016-09-02 2016 NorCal Cross Country Preview 6437m 25:43.1 90th · 2nd on team 90.7 ★PR ★CR SR CSR RSR

2014 XC 106.2

Sheldon (CA) (CA) · Grade 12

Date Meet Event Result Place Ratingi Difficultyi PR/SR Flags
2014-11-01 Willow Hills Reservoir Course 5000m 19:17 53rd · 9th on team 111.9 +2.5% SR CSR RSR
2014-10-18 Willow Hills Reservoir Course 3400m 13:07.8 43rd · 3rd on team 108.3 +2.7% ★PR ★CR SR CSR RSR
2014-10-08 Granite Park 5000m 20:23 64th · 9th on team 102.7 -1.7% SR CSR
2014-09-27 Elkhorn Golf Course 3218m 12:28 81st · 4th on team 100.6 -3.4% CSR
2014-09-13 Nevada Union High School 4828m 23:33.2 99th · 8th on team +5.6% ★CR SR CSR
2014-08-29 Lodi Lake 3218m 11:28 1st · 1st on team 107.7 -3.7% ★PR ★CR SR CSR RSR

2013 XC 108.5

Sheldon (CA) (CA) · Grade 11

Date Meet Event Result Place Ratingi Difficultyi PR/SR Flags
2013-11-02 Willow Hills Reservoir Course 5000m 18:54 41st · 9th on team 114.3 +2.5% ★CR CSR RSR
2013-10-19 Willow Hills Reservoir Course 5000m 19:36.8 20th · 2nd on team 110.4 +2.5% CR CSR RSR
2013-10-09 Granite Park 5000m 18:52 48th · 10th on team 110.0 -1.7% ★PR ★CR SR CSR RSR
2013-09-28 Elkhorn Golf Course 3218m 11:44 12th · 2nd on team 106.8 -3.4% PR ★CR SR CSR
2013-09-21 Calaveras County Fairgrounds 4828m 19:19 1st · 1st on team 108.1 +4.5% ★PR ★CR SR CSR RSR
2013-09-07 Lagoon Valley Park 3218m 13:28 29th · 2nd on team 106.6 +10.3% ★CR SR CSR RSR
2013-08-30 Eagal Lakes 5000m 21:30.5 47th · 6th on team 103.6 +4.7% ★CR SR CSR RSR

2012 XC 99.8

Sheldon (CA) (CA) · Grade 10

Date Meet Event Result Place Ratingi Difficultyi PR/SR Flags
2012-11-03 Calaveras County Fairgrounds 4828m 20:53 138th · 7th on team 102.2 +4.5% PR CR SR CSR
2012-10-27 Willow Hills Reservoir Course 3400m 13:51 47th · 8th on team 102.8 +2.7% PR CR SR CSR
2012-10-19 Lodi Lake 3138m 12:41 39th · 3rd on team 97.6 -1.9% ★PR ★CR SR CSR
2012-10-13 Willow Hills Reservoir Course 5000m 20:58.7 61st · 4th on team 103.2 +2.5% PR CR R SR CSR RSR
2012-10-06 Granite Park 3540m 14:22 18th · 8th on team 98.4 -1.7% ★PR ★CR R SR CSR RSR
2012-08-29 Lodi Lake 3218m 13:14 56th · 4th on team 94.8 -3.7% PR CR R SR CSR RSR

Track & Field

TF speed rating

2015 TF 111.0

Sheldon (CA) (CA) · Grade 12

Date Meet Event Result Place Ratingi Difficultyi PR/SR Flags
2015-05-01 Sheldon Distance Carnival 800m 2:10.1 14th · 2nd on team 115.3 -0.7%
2015-04-22 Delta League, Grant, Sheldon, Elk Grove 800m 2:14.23 4th · 3rd on team 111.4 -0.9%
2015-04-08 Delta: Davis, Jes/SF v. Sheldon 800m 2:25.19 17th · 7th on team 103.1 -0.7%
2015-04-08 Delta: Davis, Jes/SF v. Sheldon 1600m 5:12.44 25th · 5th on team 108.2 -0.7%
2015-03-28 Metro Invitational 800m 2:15.23 12th · 1st on team 112.5 +0.4%
2015-03-27 Bronco Roundup Distance Carnival 800m 2:08.2 26th · 3rd on team 116.7 -1.1% ★PR ★R SR RSR
2015-03-25 Delta: Franklin, Monterey Trail @Sheldon 800m 2:16.13 8th · 3rd on team 110.1 -0.7%
2015-03-25 Delta: Franklin, Monterey Trail @Sheldon 1600m 5:15.73 14th · 5th on team 107.4 -0.7%
2015-03-18 Delta: Pleasant Grove @Sheldon 1600m 4:57.8 4th · 3rd on team 113.8 -0.7% SR RSR
2015-02-28 Capital Classic 800m 2:13.94 16th · 2nd on team 111.3 -0.9% SR RSR

2014 TF 111.1

Sheldon (CA) (CA) · Grade 11

Date Meet Event Result Place Ratingi Difficultyi PR/SR Flags
2014-05-16 DRL Finals (F/S & Varsity) 800m 2:17.65 30th · 7th on team 110.5 +0.7%
2014-05-16 DRL Finals (F/S & Varsity) 3200m 11:47.97 13th · 4th on team 105.4 +0.7% ★PR SR
2014-05-16 DRL Finals (F/S & Varsity) 1600m 4:58.77 10th · 5th on team 115.2 +0.7%
2014-05-10 DRL League Trials (F/S & Varsity) 800m 2:17.65 21st · 5th on team 110.3 +0.7%
2014-05-02 Sheldon Distance Carnival 800m 2:12.1 22nd · 2nd on team 113.3 -0.7% SR
2014-04-30 DRL Dual: Jesuit/St. Francis @ Sheldon 800m 2:24.12 9th · 4th on team 103.9 -0.7%
2014-04-30 DRL Dual: Jesuit/St. Francis @ Sheldon 1600m 5:21.06 6th · 4th on team 105.7 -0.7%
2014-04-15 Rio Linda Invitational 1600m 4:56.65 10th · 2nd on team 115.5 +0.4%
2014-04-09 DRL Dual: Sheldon vs Folsom 1600m 5:22.9 6th · 5th on team 106.3 +0.6%
2014-04-09 DRL Dual: Sheldon vs Folsom 300mh 54.74 1st · 1st on team +0.6% ★PR SR
2014-04-09 DRL Dual: Sheldon vs Folsom 110mh 24.04 2nd · 1st on team +0.6% ★PR SR
2014-03-28 Bronco Roundup Distance Carnival 1600m 4:51.26 27th · 3rd on team 116.0 -1.1% ★PR R SR RSR
2014-03-28 Bronco Roundup Distance Carnival 800m 2:12.51 28th · 3rd on team 113.0 -1.1% SR
2014-03-22 Husky Invitational 1600m 4:55.16 32nd · 5th on team 114.6 -0.7% PR SR RSR
2014-03-22 Husky Invitational 800m 2:13.16 15th · 1st on team 112.3 -0.7%
2014-03-15 Mark Macres Invitational 800m 2:12.73 15th · 3rd on team 113.6 +0.3% SR RSR
2014-03-15 Mark Macres Invitational 1600m 4:58.23 15th · 2nd on team 114.6 +0.3% PR SR RSR
2014-03-14 Lodi/Bear Creek Distance Carnival 1600m 5:00.4 10th · 3rd on team 113.3 -0.1% PR SR RSR
2014-03-14 Lodi/Bear Creek Distance Carnival 800m 2:12.8 7th · 2nd on team 113.2 -0.1% SR
2014-03-01 Capital Classic Relays 800m 2:19.81 27th · 1st on team 107.1 -0.9% SR
2014-03-01 Capital Classic Relays 1600m 5:04.33 22nd · 4th on team 111.3 -0.9% SR RSR
2014-02-26 MTHS practice meet 1600m 5:19.14 13th · 6th on team 107.1 +0.3% SR RSR

2013 TF 108.3

Sheldon (CA) (CA) · Grade 10

Date Meet Event Result Place Ratingi Difficultyi PR/SR Flags
2013-05-08 DRL F/S Championships 1600m 5:03.77 13th · 4th on team 110.4 -0.7% PR SR
2013-05-03 Folsom/Del Campo Distance Carnival 800m 2:11.6 3rd · 3rd on team 115.2 +0.6% PR R SR RSR
2013-04-26 Sheldon Distance Carnival 800m 2:14.3 12th · 4th on team 111.0 -0.7%
2013-04-24 Pleasant Grove / Sheldon v. Ponderosa 800m 2:13.9 3rd · 2nd on team 112.8 +0.3% PR R SR RSR
2013-04-17 Oak Ridge vs Sheldon 1600m 5:11.3 4th · 1st on team 109.1 -0.7% PR SR
2013-04-10 Jesuit/St. Francis vs. Sheldon 800m 2:24.93 6th · 3rd on team 103.3 -0.7%
2013-04-10 Jesuit/St. Francis vs. Sheldon 1600m 5:24.96 10th · 5th on team 104.2 -0.7%
2013-04-06 Mark Macres Invitational 800m 2:14.86 4th · 3rd on team 111.9 +0.3% PR R SR RSR
2013-04-06 Mark Macres Invitational 1600m 5:12.74 9th · 4th on team 108.9 +0.3% PR SR
2013-03-23 Husky Invitational 800m 2:15.49 8th · 3rd on team 110.4 -0.7% PR SR
2013-03-22 Bronco Roundup Distance Carnival 1600m 5:29.4 33rd · 4th on team 102.5 -1.1%
2013-03-22 Bronco Roundup Distance Carnival 800m 2:22.46 21st · 3rd on team 105.0 -1.1%
2013-03-16 Depth Charge 800m 2:16.42 4th · 2nd on team 110.8 +0.6% PR R SR RSR
2013-03-16 Depth Charge 1600m 5:24.58 13th · 3rd on team 105.2 +0.6% PR SR
2013-02-23 Capital Classic Relays 1600m 5:28.3 16th · 1st on team 104.2 +0.8% PR R SR RSR